Time;durP1;ratioP1;P1;durP2;ratioP2;P2;SDS_P1;SDS_P2;PMS_P1;PMS_P2;Temp;Humidity;BMP_temperature;BMP_pressure;BME280_temperature;BME280_humidity;BME280_pressure;Samples;Min_cycle;Max_cycle;Signal;HPM_P1;HPM_P2
2022/08/01 00:01:33;;;;;;;7.95;3.78;;;24.60;83.70;;;;;;5049497;28;20584;-78
2022/08/01 00:04:01;;;;;;;7.00;3.63;;;24.60;83.70;;;;;;5044831;28;20198;-79
2022/08/01 00:06:30;;;;;;;5.72;3.58;;;24.60;83.60;;;;;;5039407;28;20885;-78
2022/08/01 00:08:58;;;;;;;5.90;4.10;;;24.60;83.60;;;;;;5047978;28;20219;-78
2022/08/01 00:11:27;;;;;;;8.07;3.70;;;24.60;83.70;;;;;;5047271;28;20213;-78
2022/08/01 00:13:55;;;;;;;7.60;4.13;;;24.50;83.70;;;;;;5047689;28;20207;-77
2022/08/01 00:16:24;;;;;;;6.60;3.78;;;24.50;83.90;;;;;;5044742;28;20202;-79
2022/08/01 00:18:54;;;;;;;7.78;4.18;;;24.50;83.90;;;;;;5045060;28;20577;-78
2022/08/01 00:21:22;;;;;;;5.55;3.75;;;24.50;83.90;;;;;;5040010;28;20187;-79
2022/08/01 00:23:51;;;;;;;7.03;4.10;;;24.50;83.90;;;;;;5042464;28;20202;-79
2022/08/01 00:26:19;;;;;;;6.60;3.60;;;24.50;84.00;;;;;;5044966;28;20284;-78
2022/08/01 00:28:48;;;;;;;6.28;3.95;;;24.40;83.90;;;;;;5051081;28;20257;-78
2022/08/01 00:31:16;;;;;;;7.55;3.30;;;24.50;84.10;;;;;;5041787;28;20210;-77
2022/08/01 00:33:45;;;;;;;6.72;4.18;;;24.50;84.00;;;;;;5045796;28;20195;-79
2022/08/01 00:36:14;;;;;;;8.52;4.20;;;24.50;84.00;;;;;;5052160;28;20571;-78
2022/08/01 00:38:43;;;;;;;7.15;4.70;;;24.50;83.90;;;;;;5048178;28;20210;-78
2022/08/01 00:41:11;;;;;;;10.88;4.57;;;24.50;84.00;;;;;;5050574;28;20191;-79
2022/08/01 00:43:42;;;;;;;8.70;4.80;;;24.40;84.00;;;;;;5047189;28;20316;-78
2022/08/01 00:46:10;;;;;;;8.50;4.60;;;24.50;84.10;;;;;;5050586;28;20195;-78
2022/08/01 00:48:40;;;;;;;8.70;4.22;;;24.50;84.20;;;;;;5052788;28;20231;-78
2022/08/01 00:51:09;;;;;;;7.97;4.47;;;24.50;84.20;;;;;;5048822;28;20708;-79
2022/08/01 00:53:39;;;;;;;10.63;4.93;;;24.50;84.30;;;;;;5055625;28;20389;-78
2022/08/01 00:56:21;;;;;;;9.65;5.25;;;24.50;84.40;;;;;;5052238;28;20190;-79
2022/08/01 00:58:49;;;;;;;7.43;4.38;;;24.50;84.50;;;;;;5052512;28;20191;-78
2022/08/01 01:01:20;;;;;;;7.32;5.03;;;24.50;84.50;;;;;;5056936;28;20750;-79
2022/08/01 01:03:49;;;;;;;7.78;4.75;;;24.50;84.50;;;;;;5050771;28;20645;-78
2022/08/01 01:06:31;;;;;;;6.47;4.30;;;24.50;84.80;;;;;;5050013;28;20198;-78
2022/08/01 01:09:13;;;;;;;7.82;4.50;;;24.50;84.90;;;;;;5042392;28;20222;-79
2022/08/01 01:11:48;;;;;;;8.55;4.88;;;24.50;84.90;;;;;;5052780;28;20191;-79
2022/08/01 01:14:27;;;;;;;8.07;4.82;;;24.50;84.90;;;;;;5042585;28;20206;-78
2022/08/01 01:16:56;;;;;;;8.18;5.35;;;24.50;85.00;;;;;;5054290;28;20187;-78
2022/08/01 01:19:31;;;;;;;8.02;4.90;;;24.50;84.90;;;;;;5051826;28;20191;-78
2022/08/01 01:22:18;;;;;;;7.25;5.00;;;24.50;85.00;;;;;;5038896;28;20190;-78
2022/08/01 01:25:06;;;;;;;8.35;5.30;;;24.50;85.10;;;;;;5051173;28;20184;-79
2022/08/01 01:27:46;;;;;;;7.10;5.05;;;24.50;85.10;;;;;;5055285;28;20197;-79
2022/08/01 01:30:16;;;;;;;7.75;4.88;;;24.50;85.10;;;;;;5047692;28;20225;-78
2022/08/01 01:32:48;;;;;;;8.90;5.35;;;24.50;85.10;;;;;;5043873;28;20185;-75
2022/08/01 01:35:22;;;;;;;7.38;4.60;;;24.50;85.20;;;;;;5048417;28;20898;-78
2022/08/01 01:37:56;;;;;;;7.70;4.82;;;24.50;85.40;;;;;;5053503;28;20187;-79
2022/08/01 01:40:26;;;;;;;10.48;6.07;;;24.50;85.50;;;;;;5046815;28;20218;-79
2022/08/01 01:42:57;;;;;;;13.82;7.50;;;24.50;86.20;;;;;;5053242;28;20198;-79
2022/08/01 01:45:28;;;;;;;15.18;9.40;;;24.50;86.90;;;;;;5050885;28;20199;-79
2022/08/01 01:47:57;;;;;;;16.65;10.65;;;24.40;88.30;;;;;;5050547;28;20286;-79
2022/08/01 01:50:29;;;;;;;19.90;11.95;;;24.40;87.60;;;;;;5045216;28;20226;-79
2022/08/01 01:53:00;;;;;;;19.38;12.25;;;24.40;87.80;;;;;;5053987;28;20191;-79
2022/08/01 01:55:30;;;;;;;19.08;11.70;;;24.40;88.00;;;;;;5054390;28;21150;-80
2022/08/01 01:58:00;;;;;;;19.02;12.15;;;24.40;88.20;;;;;;5048054;28;20221;-79
2022/08/01 02:00:31;;;;;;;19.98;11.82;;;24.30;88.00;;;;;;5049115;28;20203;-79
2022/08/01 02:03:02;;;;;;;19.52;12.00;;;24.30;88.20;;;;;;5047963;28;20187;-79
2022/08/01 02:05:34;;;;;;;18.98;11.40;;;24.30;88.30;;;;;;5044176;28;20305;-79
2022/08/01 02:08:04;;;;;;;18.67;10.18;;;24.30;88.50;;;;;;5042722;28;20194;-79
2022/08/01 02:10:34;;;;;;;18.75;11.15;;;24.30;88.50;;;;;;5044066;28;20883;-79
2022/08/01 02:13:06;;;;;;;19.75;12.00;;;24.20;88.50;;;;;;5045554;28;20192;-77
2022/08/01 02:15:38;;;;;;;21.40;11.50;;;24.20;89.00;;;;;;5045384;28;20205;-79
2022/08/01 02:18:26;;;;;;;19.90;11.07;;;24.20;89.10;;;;;;5040890;28;20198;-79
2022/08/01 02:20:56;;;;;;;21.45;11.77;;;24.10;89.40;;;;;;5039244;28;20191;-79
2022/08/01 02:23:28;;;;;;;20.17;11.60;;;24.10;89.40;;;;;;5051393;28;20684;-78
2022/08/01 02:25:58;;;;;;;20.30;11.75;;;24.10;89.30;;;;;;5052654;28;20191;-79
2022/08/01 02:28:44;;;;;;;21.05;11.25;;;24.00;89.30;;;;;;5036101;28;20278;-79
2022/08/01 02:31:18;;;;;;;20.10;10.05;;;24.00;89.60;;;;;;5045206;28;20218;-80
2022/08/01 02:33:53;;;;;;;20.13;10.90;;;24.00;89.40;;;;;;5043479;28;20190;-79
2022/08/01 02:36:22;;;;;;;17.60;10.38;;;24.00;89.60;;;;;;5042514;28;20193;-79
2022/08/01 02:39:01;;;;;;;18.85;10.80;;;24.00;89.50;;;;;;5042876;28;20222;-79
2022/08/01 02:41:34;;;;;;;20.20;11.25;;;24.00;89.40;;;;;;5040345;28;20199;-77
2022/08/01 02:44:06;;;;;;;18.85;11.05;;;24.00;89.40;;;;;;5044301;28;20881;-79
2022/08/01 02:46:40;;;;;;;21.52;11.65;;;24.00;89.60;;;;;;5038230;28;20199;-80
2022/08/01 02:49:11;;;;;;;17.63;10.32;;;24.00;89.90;;;;;;5039012;28;20179;-79
2022/08/01 02:51:41;;;;;;;19.60;9.80;;;24.00;89.90;;;;;;5050461;28;20199;-79
2022/08/01 02:54:12;;;;;;;17.75;10.25;;;23.90;89.70;;;;;;5046920;28;20182;-79
2022/08/01 02:56:42;;;;;;;16.23;9.40;;;23.90;89.90;;;;;;5039025;28;20187;-79
2022/08/01 02:59:14;;;;;;;14.85;8.57;;;23.90;90.00;;;;;;5038852;28;20218;-78
2022/08/01 03:01:46;;;;;;;12.82;7.82;;;23.90;89.90;;;;;;5046238;28;20300;-79
2022/08/01 03:04:17;;;;;;;14.13;8.50;;;23.90;89.70;;;;;;5046313;28;20191;-79
2022/08/01 03:06:46;;;;;;;14.68;7.85;;;23.80;89.40;;;;;;5040765;28;20183;-80
2022/08/01 03:09:16;;;;;;;12.75;7.68;;;23.80;89.30;;;;;;5037392;28;20209;-80
2022/08/01 03:11:47;;;;;;;11.00;6.82;;;23.70;89.30;;;;;;5043031;28;20253;-79
2022/08/01 03:14:17;;;;;;;11.57;6.78;;;23.70;89.10;;;;;;5041397;28;21678;-79
2022/08/01 03:16:47;;;;;;;12.50;7.25;;;23.70;89.10;;;;;;5041235;28;20286;-79
2022/08/01 03:19:19;;;;;;;12.40;7.00;;;23.70;89.10;;;;;;5043307;28;20632;-76
2022/08/01 03:21:49;;;;;;;12.73;6.45;;;23.60;89.00;;;;;;5041193;28;20559;-79
2022/08/01 03:24:19;;;;;;;11.73;6.45;;;23.60;89.00;;;;;;5043011;28;20198;-79
2022/08/01 03:26:49;;;;;;;11.75;6.57;;;23.60;88.90;;;;;;5048786;28;20209;-79
2022/08/01 03:29:24;;;;;;;12.05;6.00;;;23.60;88.80;;;;;;5052215;28;20194;-78
2022/08/01 03:31:55;;;;;;;11.50;6.20;;;23.60;88.80;;;;;;5040912;28;20683;-79
2022/08/01 03:34:23;;;;;;;10.35;6.07;;;23.60;88.70;;;;;;5047905;28;20464;-78
2022/08/01 03:37:00;;;;;;;11.50;6.22;;;23.60;88.50;;;;;;5043112;28;20226;-79
2022/08/01 03:39:34;;;;;;;10.02;6.18;;;23.50;88.40;;;;;;5036291;28;20224;-79
2022/08/01 03:42:09;;;;;;;13.38;5.85;;;23.50;88.30;;;;;;5040064;28;20199;-79
2022/08/01 03:44:41;;;;;;;10.07;5.68;;;23.50;88.00;;;;;;5033967;28;20256;-79
2022/08/01 03:47:16;;;;;;;7.70;5.28;;;23.50;87.70;;;;;;5039663;28;20195;-78
2022/08/01 03:49:47;;;;;;;12.75;6.18;;;23.50;88.10;;;;;;5042930;28;20640;-78
2022/08/01 03:52:16;;;;;;;13.48;5.78;;;23.50;86.80;;;;;;5039397;28;20183;-78
2022/08/01 03:54:51;;;;;;;12.98;5.80;;;23.50;86.60;;;;;;5042103;28;20207;-79
2022/08/01 03:57:20;;;;;;;9.90;5.90;;;23.50;86.50;;;;;;5042666;28;20196;-78
2022/08/01 04:00:08;;;;;;;11.13;6.20;;;23.50;87.30;;;;;;5037681;28;20271;-78
2022/08/01 04:02:39;;;;;;;9.13;4.40;;;23.50;86.10;;;;;;5040757;28;20248;-79
2022/08/01 04:05:08;;;;;;;8.02;4.47;;;23.50;85.80;;;;;;5037705;28;20206;-76
2022/08/01 04:07:38;;;;;;;7.22;3.97;;;23.50;85.60;;;;;;5031860;28;20195;-77
2022/08/01 04:10:08;;;;;;;10.45;4.00;;;23.50;85.00;;;;;;5044974;28;20551;-78
2022/08/01 04:12:36;;;;;;;7.65;4.15;;;23.40;84.00;;;;;;5043090;28;20238;-77
2022/08/01 04:15:06;;;;;;;8.15;4.05;;;23.40;83.10;;;;;;5041051;28;20187;-78
2022/08/01 04:17:35;;;;;;;8.18;3.85;;;23.30;82.70;;;;;;5043771;28;20297;-79
2022/08/01 04:20:05;;;;;;;8.88;3.60;;;23.30;82.20;;;;;;5042036;28;20191;-79
2022/08/01 04:22:35;;;;;;;9.65;3.78;;;23.20;81.60;;;;;;5043860;28;20214;-80
2022/08/01 04:25:11;;;;;;;9.75;4.28;;;23.20;81.70;;;;;;5037258;28;20191;-79
2022/08/01 04:27:43;;;;;;;7.68;3.50;;;23.20;81.40;;;;;;5032690;28;20199;-79
2022/08/01 04:30:22;;;;;;;5.85;2.50;;;23.20;81.10;;;;;;5044204;28;20210;-79
2022/08/01 04:32:52;;;;;;;4.35;2.20;;;23.20;80.40;;;;;;5042882;28;20224;-79
2022/08/01 04:35:24;;;;;;;4.80;2.28;;;23.20;80.40;;;;;;5045334;28;20198;-79
2022/08/01 04:38:17;;;;;;;5.20;2.10;;;23.20;80.00;;;;;;5044567;28;20187;-79
2022/08/01 04:40:47;;;;;;;5.75;2.45;;;23.20;79.50;;;;;;5041356;28;20191;-80
2022/08/01 04:43:15;;;;;;;4.05;1.90;;;23.20;79.30;;;;;;5042703;28;20198;-79
2022/08/01 04:45:48;;;;;;;6.13;2.80;;;23.20;78.90;;;;;;5042258;28;20707;-79
2022/08/01 04:48:19;;;;;;;7.38;2.00;;;23.20;78.90;;;;;;5047562;28;20673;-77
2022/08/01 04:50:51;;;;;;;6.07;1.88;;;23.20;79.50;;;;;;5044592;28;20250;-78
2022/08/01 04:53:22;;;;;;;3.65;2.13;;;23.20;78.30;;;;;;5043550;28;20195;-78
2022/08/01 04:55:50;;;;;;;6.53;2.25;;;23.20;78.30;;;;;;5047756;28;20191;-77
2022/08/01 04:58:19;;;;;;;4.00;2.47;;;23.20;77.90;;;;;;5046377;28;20202;-79
2022/08/01 05:00:48;;;;;;;5.72;2.75;;;23.20;77.80;;;;;;5040821;28;20754;-79
2022/08/01 05:03:16;;;;;;;5.95;2.03;;;23.30;78.00;;;;;;5036398;28;20191;-78
2022/08/01 05:05:45;;;;;;;5.22;2.38;;;23.30;78.10;;;;;;5027216;28;20199;-78
2022/08/01 05:08:16;;;;;;;6.72;2.60;;;23.40;78.10;;;;;;5036504;28;20195;-78
2022/08/01 05:10:44;;;;;;;4.32;2.22;;;23.40;78.00;;;;;;5037617;28;20191;-78
2022/08/01 05:13:13;;;;;;;6.47;2.85;;;23.40;78.00;;;;;;5041225;28;20203;-77
2022/08/01 05:15:41;;;;;;;5.05;2.83;;;23.40;78.10;;;;;;5044222;28;20187;-78
2022/08/01 05:18:09;;;;;;;4.68;2.35;;;23.50;78.30;;;;;;5042573;28;20296;-78
2022/08/01 05:20:38;;;;;;;4.53;2.50;;;23.50;78.30;;;;;;5049441;28;20214;-77
2022/08/01 05:23:09;;;;;;;5.78;2.83;;;23.60;78.30;;;;;;5043958;28;20199;-77
2022/08/01 05:25:49;;;;;;;9.55;3.08;;;23.60;78.30;;;;;;5046958;28;20209;-76
2022/08/01 05:28:26;;;;;;;5.30;2.78;;;23.70;78.30;;;;;;5048435;28;20191;-76
2022/08/01 05:30:56;;;;;;;7.47;2.70;;;23.80;78.40;;;;;;5049634;28;20190;-76
2022/08/01 05:33:24;;;;;;;8.23;3.42;;;23.80;78.40;;;;;;5045089;28;20194;-76
2022/08/01 05:35:53;;;;;;;5.85;3.15;;;23.90;78.40;;;;;;5043965;28;20675;-76
2022/08/01 05:38:21;;;;;;;9.07;3.88;;;24.00;78.60;;;;;;5045580;28;20952;-76
2022/08/01 05:40:51;;;;;;;9.55;4.60;;;24.00;78.70;;;;;;5043919;28;20186;-76
2022/08/01 05:43:19;;;;;;;10.57;4.63;;;24.10;78.70;;;;;;5046662;28;20198;-76
2022/08/01 05:45:54;;;;;;;11.68;4.85;;;24.20;78.90;;;;;;5048316;28;20187;-76
2022/08/01 05:48:22;;;;;;;12.70;5.32;;;24.30;79.20;;;;;;5037877;28;20202;-77
2022/08/01 05:50:50;;;;;;;13.35;7.15;;;24.30;79.40;;;;;;5044875;28;20278;-77
2022/08/01 05:53:25;;;;;;;13.98;6.38;;;24.40;79.70;;;;;;5041363;28;20248;-76
2022/08/01 05:55:55;;;;;;;9.55;6.20;;;24.40;80.00;;;;;;5052125;28;20195;-76
2022/08/01 05:58:23;;;;;;;14.40;8.02;;;24.50;80.20;;;;;;5045321;28;20207;-77
2022/08/01 06:00:52;;;;;;;13.82;7.65;;;24.50;80.40;;;;;;5047815;28;20203;-77
2022/08/01 06:03:21;;;;;;;14.40;8.63;;;24.60;80.70;;;;;;5050268;28;20198;-77
2022/08/01 06:05:49;;;;;;;14.18;8.35;;;24.70;81.20;;;;;;5045052;28;20205;-77
2022/08/01 06:08:18;;;;;;;17.42;8.65;;;24.80;81.30;;;;;;5047052;28;20191;-77
2022/08/01 06:10:46;;;;;;;14.10;7.70;;;24.80;81.50;;;;;;5043352;28;20838;-76
2022/08/01 06:13:16;;;;;;;15.73;7.57;;;24.90;81.70;;;;;;5043665;28;20214;-77
2022/08/01 06:15:44;;;;;;;12.25;7.32;;;25.00;83.00;;;;;;5049782;28;20197;-77
2022/08/01 06:18:13;;;;;;;12.57;7.07;;;25.10;82.60;;;;;;5047538;28;20199;-76
2022/08/01 06:20:42;;;;;;;12.90;7.60;;;25.20;82.50;;;;;;5052854;28;20195;-77
2022/08/01 06:23:10;;;;;;;12.50;6.68;;;25.20;82.70;;;;;;5052896;28;20227;-77
2022/08/01 06:25:59;;;;;;;11.65;7.25;;;25.30;82.60;;;;;;5037749;28;20206;-76
2022/08/01 06:28:29;;;;;;;11.35;5.57;;;25.40;82.70;;;;;;5035682;28;20183;-76
2022/08/01 06:30:59;;;;;;;9.07;5.05;;;25.40;82.60;;;;;;5046298;28;20198;-77
2022/08/01 06:33:28;;;;;;;9.35;4.68;;;25.50;81.70;;;;;;5043613;28;20229;-78
2022/08/01 06:35:57;;;;;;;8.95;4.40;;;25.60;81.50;;;;;;5046135;28;20193;-78
2022/08/01 06:38:25;;;;;;;5.63;3.15;;;25.70;81.40;;;;;;5049893;28;20191;-77
2022/08/01 06:40:55;;;;;;;8.77;3.80;;;25.80;80.80;;;;;;5048610;28;20198;-76
2022/08/01 06:43:23;;;;;;;8.07;4.22;;;25.90;80.10;;;;;;5044037;28;20198;-77
2022/08/01 06:45:53;;;;;;;7.95;4.35;;;25.90;79.80;;;;;;5038418;28;20837;-78
2022/08/01 06:48:22;;;;;;;4.20;2.55;;;26.00;79.60;;;;;;5047347;28;20665;-78
2022/08/01 06:51:07;;;;;;;3.22;2.42;;;26.00;78.60;;;;;;5043884;28;20230;-77
2022/08/01 06:53:37;;;;;;;3.33;2.28;;;26.00;78.20;;;;;;5046564;28;20297;-77
2022/08/01 06:56:08;;;;;;;4.05;1.38;;;26.10;77.90;;;;;;5036451;28;20195;-77
2022/08/01 06:58:37;;;;;;;3.75;1.80;;;26.10;76.70;;;;;;5042001;28;20234;-77
2022/08/01 07:01:07;;;;;;;2.25;1.30;;;26.20;76.10;;;;;;5040191;28;20192;-78
2022/08/01 07:03:36;;;;;;;2.03;1.20;;;26.30;74.90;;;;;;5044520;28;20201;-77
2022/08/01 07:06:22;;;;;;;1.50;1.10;;;26.30;73.70;;;;;;5047653;28;20189;-78
2022/08/01 07:08:51;;;;;;;3.78;1.10;;;26.40;72.10;;;;;;5052363;28;20195;-77
2022/08/01 07:11:19;;;;;;;4.22;1.52;;;26.40;70.30;;;;;;5049044;28;20206;-77
2022/08/01 07:13:48;;;;;;;2.88;1.10;;;26.40;70.40;;;;;;5042795;28;20219;-79
2022/08/01 07:16:21;;;;;;;2.30;1.02;;;26.50;69.70;;;;;;5041404;28;20198;-78
2022/08/01 07:18:50;;;;;;;2.45;1.17;;;26.50;70.30;;;;;;5044386;28;20198;-78
2022/08/01 07:21:18;;;;;;;2.17;1.10;;;26.60;70.00;;;;;;5040448;28;20661;-78
2022/08/01 07:24:08;;;;;;;2.05;1.23;;;26.60;70.00;;;;;;5044597;28;20265;-78
2022/08/01 07:26:43;;;;;;;2.97;0.98;;;26.70;70.50;;;;;;5045503;28;20651;-78
2022/08/01 07:29:22;;;;;;;2.63;1.30;;;26.80;70.20;;;;;;5040958;28;20220;-77
2022/08/01 07:31:52;;;;;;;3.25;1.27;;;26.90;69.30;;;;;;5039208;28;20198;-78
2022/08/01 07:34:21;;;;;;;1.23;0.90;;;26.90;68.80;;;;;;5043838;28;20245;-75
2022/08/01 07:36:50;;;;;;;1.40;0.90;;;27.00;68.90;;;;;;5042247;28;20203;-77
2022/08/01 07:39:18;;;;;;;1.70;0.90;;;27.00;67.90;;;;;;5042919;28;20941;-78
2022/08/01 07:41:47;;;;;;;2.30;0.90;;;27.10;67.10;;;;;;5039473;28;20233;-76
2022/08/01 07:44:35;;;;;;;1.75;0.82;;;27.10;67.00;;;;;;5043534;28;20202;-77
2022/08/01 07:47:06;;;;;;;1.20;0.88;;;27.10;67.30;;;;;;5043852;28;20199;-78
2022/08/01 07:49:34;;;;;;;2.67;0.80;;;27.20;67.30;;;;;;5048355;28;20187;-76
2022/08/01 07:52:07;;;;;;;1.98;0.90;;;27.20;67.30;;;;;;5043727;28;20187;-77
2022/08/01 07:54:36;;;;;;;1.55;0.82;;;27.30;66.80;;;;;;5039410;28;20202;-77
2022/08/01 07:57:05;;;;;;;1.02;0.80;;;27.30;65.80;;;;;;5037151;28;20199;-77
2022/08/01 07:59:34;;;;;;;5.28;1.33;;;27.40;66.30;;;;;;5047608;28;20207;-78
2022/08/01 08:02:04;;;;;;;2.28;1.10;;;27.40;66.20;;;;;;5039572;28;20198;-76
2022/08/01 08:04:33;;;;;;;0.82;0.70;;;27.50;66.10;;;;;;5041953;28;20194;-79
2022/08/01 08:07:01;;;;;;;2.83;1.00;;;27.50;66.00;;;;;;5045067;28;20211;-78
2022/08/01 08:09:30;;;;;;;1.25;0.80;;;27.60;65.90;;;;;;5039618;28;20187;-76
2022/08/01 08:12:06;;;;;;;1.48;1.00;;;27.60;64.60;;;;;;5046151;28;20197;-77
2022/08/01 08:14:35;;;;;;;2.30;1.00;;;27.60;64.70;;;;;;5048631;28;20285;-76
2022/08/01 08:17:05;;;;;;;1.70;0.88;;;27.70;65.00;;;;;;5043017;28;20191;-78
2022/08/01 08:19:36;;;;;;;1.85;0.77;;;27.80;65.20;;;;;;5041093;28;20806;-78
2022/08/01 08:22:07;;;;;;;4.75;1.02;;;27.80;65.50;;;;;;5049509;28;20265;-76
2022/08/01 08:24:37;;;;;;;2.08;1.17;;;27.90;65.40;;;;;;5042206;28;20203;-79
2022/08/01 08:27:14;;;;;;;0.85;0.73;;;28.00;65.20;;;;;;5037550;28;20201;-77
2022/08/01 08:29:42;;;;;;;1.92;1.10;;;28.10;65.10;;;;;;5051163;28;20198;-77
2022/08/01 08:32:13;;;;;;;1.40;0.90;;;28.20;63.80;;;;;;5040043;28;20195;-78
2022/08/01 08:34:42;;;;;;;1.33;0.80;;;28.20;63.80;;;;;;5040776;28;20229;-77
2022/08/01 08:37:11;;;;;;;2.90;1.00;;;28.30;64.20;;;;;;5042484;28;20766;-76
2022/08/01 08:39:41;;;;;;;1.92;1.10;;;28.30;63.90;;;;;;5040355;28;20227;-76
2022/08/01 08:42:10;;;;;;;3.25;1.00;;;28.40;63.80;;;;;;5042579;28;20219;-76
2022/08/01 08:44:40;;;;;;;1.67;1.00;;;28.40;63.70;;;;;;5033366;28;20195;-75
2022/08/01 08:47:14;;;;;;;0.93;0.80;;;28.40;63.10;;;;;;5037805;28;21030;-77
2022/08/01 08:49:49;;;;;;;1.73;0.80;;;28.40;63.10;;;;;;5041805;28;20187;-78
2022/08/01 08:52:19;;;;;;;2.00;0.90;;;28.40;63.30;;;;;;5041139;28;20906;-78
2022/08/01 08:54:49;;;;;;;1.20;0.90;;;28.50;63.40;;;;;;5045426;28;20211;-77
2022/08/01 08:57:19;;;;;;;1.77;0.82;;;28.40;63.20;;;;;;5040058;28;20183;-75
2022/08/01 08:59:51;;;;;;;1.63;0.90;;;28.40;63.30;;;;;;5046763;28;20199;-76
2022/08/01 09:02:21;;;;;;;2.83;1.52;;;28.40;62.90;;;;;;5043103;28;20278;-75
2022/08/01 09:04:51;;;;;;;1.63;0.90;;;28.50;63.00;;;;;;5043596;28;20203;-76
2022/08/01 09:07:19;;;;;;;1.90;0.73;;;28.50;62.90;;;;;;5038263;28;20210;-77
2022/08/01 09:09:49;;;;;;;1.40;1.00;;;28.50;63.10;;;;;;5045440;28;20207;-77
2022/08/01 09:12:19;;;;;;;1.40;1.00;;;28.60;63.30;;;;;;5041924;28;20194;-76
2022/08/01 09:14:49;;;;;;;9.90;1.10;;;28.70;63.60;;;;;;5041963;28;20215;-78
2022/08/01 09:17:18;;;;;;;1.63;0.80;;;28.70;63.10;;;;;;5038983;28;20183;-77
2022/08/01 09:19:51;;;;;;;1.55;0.70;;;28.70;62.80;;;;;;5039939;28;20301;-76
2022/08/01 09:22:23;;;;;;;1.40;1.10;;;28.70;63.00;;;;;;5043008;28;20230;-78
2022/08/01 09:25:04;;;;;;;1.33;0.80;;;28.80;63.10;;;;;;5045050;28;20191;-76
2022/08/01 09:27:34;;;;;;;3.30;1.20;;;28.90;63.20;;;;;;5040395;28;20536;-76
2022/08/01 09:30:11;;;;;;;5.38;1.10;;;29.00;62.90;;;;;;5038915;28;20187;-77
2022/08/01 09:32:55;;;;;;;1.38;0.93;;;29.00;62.70;;;;;;5035847;28;20187;-76
2022/08/01 09:35:28;;;;;;;4.53;1.17;;;28.90;62.50;;;;;;5044145;28;20183;-76
2022/08/01 09:38:18;;;;;;;1.58;1.02;;;28.90;62.70;;;;;;5037162;28;20663;-78
2022/08/01 09:40:48;;;;;;;1.20;0.90;;;28.90;62.90;;;;;;5042276;28;20241;-78
2022/08/01 09:43:18;;;;;;;2.40;1.10;;;28.80;63.00;;;;;;5040241;28;20603;-78
2022/08/01 09:45:47;;;;;;;2.53;1.15;;;28.70;62.70;;;;;;5044153;28;20676;-79
2022/08/01 09:48:20;;;;;;;2.33;1.10;;;28.70;62.90;;;;;;5042197;28;20191;-77
2022/08/01 09:50:58;;;;;;;1.70;1.25;;;28.60;63.30;;;;;;5034567;28;20688;-78
2022/08/01 09:53:45;;;;;;;5.25;1.45;;;28.60;63.30;;;;;;5042145;28;20256;-78
2022/08/01 09:56:21;;;;;;;6.30;1.13;;;28.60;63.70;;;;;;5037179;28;20190;-81
2022/08/01 09:58:52;;;;;;;1.98;1.27;;;28.60;64.10;;;;;;5047665;28;20197;-78
2022/08/01 10:01:28;;;;;;;4.22;1.30;;;28.70;64.20;;;;;;5041044;28;20248;-78
2022/08/01 10:04:07;;;;;;;1.50;1.08;;;28.70;64.00;;;;;;5044855;28;20191;-78
2022/08/01 10:06:39;;;;;;;1.77;1.10;;;28.70;64.80;;;;;;5047378;28;20187;-78
2022/08/01 10:09:10;;;;;;;2.40;1.15;;;28.80;64.10;;;;;;5049073;28;20235;-78
2022/08/01 10:11:39;;;;;;;2.13;1.30;;;28.80;64.10;;;;;;5041333;28;20211;-79
2022/08/01 10:14:09;;;;;;;2.28;1.30;;;28.80;63.70;;;;;;5049376;28;20215;-78
2022/08/01 10:16:38;;;;;;;1.55;1.25;;;28.90;63.60;;;;;;5044648;28;20195;-78
2022/08/01 10:19:08;;;;;;;2.25;1.20;;;29.00;63.90;;;;;;5036981;28;20195;-78
2022/08/01 10:21:49;;;;;;;2.17;1.50;;;29.00;63.10;;;;;;5037687;28;20244;-79
2022/08/01 10:24:28;;;;;;;2.88;1.50;;;29.10;63.30;;;;;;5048310;28;20755;-79
2022/08/01 10:27:02;;;;;;;2.38;1.48;;;29.10;63.10;;;;;;5044974;28;20195;-78
2022/08/01 10:29:40;;;;;;;2.42;1.55;;;29.10;62.60;;;;;;5045127;28;20195;-79
2022/08/01 10:32:29;;;;;;;2.08;1.42;;;29.20;62.70;;;;;;5043381;28;20694;-77
2022/08/01 10:34:59;;;;;;;1.83;1.38;;;29.30;62.20;;;;;;5041525;28;20230;-79
2022/08/01 10:37:36;;;;;;;5.47;1.50;;;29.30;61.80;;;;;;5042510;28;20213;-78
2022/08/01 10:40:20;;;;;;;1.73;1.25;;;29.30;61.90;;;;;;5038052;28;20218;-79
2022/08/01 10:43:04;;;;;;;2.13;1.30;;;29.30;62.10;;;;;;5042384;28;20567;-79
2022/08/01 10:45:33;;;;;;;2.28;1.20;;;29.40;62.00;;;;;;5049553;28;20195;-80
2022/08/01 10:48:07;;;;;;;2.28;1.42;;;29.40;62.00;;;;;;5046624;28;20211;-78
2022/08/01 10:50:42;;;;;;;3.53;1.52;;;29.50;61.80;;;;;;5044564;28;20709;-78
2022/08/01 10:53:19;;;;;;;2.35;1.48;;;29.50;61.50;;;;;;5038787;28;20225;-79
2022/08/01 10:56:01;;;;;;;1.65;1.15;;;29.60;61.50;;;;;;5041320;28;20807;-78
2022/08/01 10:58:33;;;;;;;3.70;1.20;;;29.70;61.70;;;;;;5046881;28;20191;-78
2022/08/01 11:01:18;;;;;;;3.15;1.60;;;29.70;61.30;;;;;;5041358;28;20187;-79
2022/08/01 11:03:59;;;;;;;3.10;1.35;;;29.80;61.30;;;;;;5046927;28;20715;-78
2022/08/01 11:06:44;;;;;;;2.00;1.23;;;29.90;60.80;;;;;;5045802;28;20243;-78
2022/08/01 11:09:28;;;;;;;2.08;1.40;;;30.00;60.30;;;;;;5049336;28;20221;-79
2022/08/01 11:12:11;;;;;;;4.00;1.38;;;30.00;60.00;;;;;;5042522;28;20182;-78
2022/08/01 11:15:28;;;;;;;4.75;1.23;;;30.10;59.90;;;;;;5034946;28;20210;-78
2022/08/01 11:18:00;;;;;;;3.63;1.23;;;30.10;59.40;;;;;;5038802;28;20197;-77
2022/08/01 11:20:31;;;;;;;3.35;1.23;;;30.20;59.30;;;;;;5040739;28;20762;-79
2022/08/01 11:23:32;;;;;;;5.63;2.40;;;30.20;59.20;;;;;;5046238;28;20232;-80
2022/08/01 11:26:23;;;;;;;2.45;1.10;;;30.10;58.20;;;;;;5012750;28;20217;-80
2022/08/01 11:29:17;;;;;;;1.95;1.20;;;30.10;58.00;;;;;;5046944;28;20195;-80
2022/08/01 11:31:50;;;;;;;1.67;1.20;;;30.10;58.00;;;;;;5043308;28;20202;-79
2022/08/01 11:34:19;;;;;;;2.78;0.95;;;30.00;58.00;;;;;;5046808;28;20625;-79
2022/08/01 11:36:48;;;;;;;2.92;1.20;;;30.10;58.10;;;;;;5046884;28;20592;-79
2022/08/01 11:39:30;;;;;;;2.05;1.20;;;30.20;57.90;;;;;;5040532;28;20218;-80
2022/08/01 11:42:21;;;;;;;6.60;1.50;;;30.20;58.00;;;;;;5040052;28;20198;-79
2022/08/01 11:44:51;;;;;;;1.80;1.10;;;30.30;58.20;;;;;;5041159;28;20199;-79
2022/08/01 11:47:39;;;;;;;3.20;1.20;;;30.30;58.20;;;;;;5042688;28;20195;-78
2022/08/01 11:50:35;;;;;;;2.15;1.20;;;30.40;58.20;;;;;;5039506;28;20649;-80
2022/08/01 11:53:06;;;;;;;1.52;1.00;;;30.50;57.90;;;;;;5040187;28;20622;-80
2022/08/01 11:55:35;;;;;;;1.60;1.10;;;30.50;58.10;;;;;;5039626;28;20245;-77
2022/08/01 11:58:07;;;;;;;1.50;1.05;;;30.50;57.40;;;;;;5040630;28;20198;-80
2022/08/01 12:00:56;;;;;;;2.35;1.38;;;30.50;56.90;;;;;;5042399;28;20191;-81
2022/08/01 12:03:28;;;;;;;2.50;1.15;;;30.50;56.60;;;;;;5044800;28;20257;-79
2022/08/01 12:06:01;;;;;;;2.40;1.23;;;30.40;56.10;;;;;;5043468;28;20661;-78
2022/08/01 12:08:32;;;;;;;6.22;1.40;;;30.40;56.00;;;;;;5048550;28;20614;-82
2022/08/01 12:11:02;;;;;;;3.40;1.42;;;30.40;56.20;;;;;;5049649;28;20210;-80
2022/08/01 12:13:42;;;;;;;2.58;1.40;;;30.30;56.40;;;;;;5036417;28;20223;-79
2022/08/01 12:16:12;;;;;;;3.28;1.88;;;30.30;56.50;;;;;;5045098;28;20673;-81
2022/08/01 12:18:42;;;;;;;1.83;1.25;;;30.30;56.30;;;;;;5054977;28;20193;-79
2022/08/01 12:21:10;;;;;;;1.38;1.08;;;30.30;56.40;;;;;;5041219;28;20201;-80
2022/08/01 12:23:39;;;;;;;3.95;1.50;;;30.30;56.30;;;;;;5045740;28;20202;-79
2022/08/01 12:26:08;;;;;;;10.50;4.22;;;30.20;56.30;;;;;;5036069;28;21024;-80
2022/08/01 12:28:57;;;;;;;2.60;0.88;;;30.20;56.40;;;;;;5042949;28;20983;-80
2022/08/01 12:31:32;;;;;;;1.75;1.00;;;30.30;56.20;;;;;;5055556;28;20449;-79
2022/08/01 12:34:28;;;;;;;1.33;0.82;;;30.30;56.00;;;;;;5044056;28;20193;-79
2022/08/01 12:36:59;;;;;;;2.15;1.20;;;30.30;56.20;;;;;;5044457;28;20195;-79
2022/08/01 12:39:32;;;;;;;2.38;1.20;;;30.30;56.20;;;;;;5050729;28;20221;-79
2022/08/01 12:42:01;;;;;;;2.60;1.25;;;30.30;56.10;;;;;;5049989;28;20510;-79
2022/08/01 12:44:32;;;;;;;1.60;1.10;;;30.50;55.40;;;;;;5046202;28;20206;-80
2022/08/01 12:47:01;;;;;;;3.67;1.00;;;30.60;55.70;;;;;;5049877;28;20226;-78
2022/08/01 12:49:31;;;;;;;1.45;1.02;;;30.70;55.70;;;;;;5051194;28;20192;-80
2022/08/01 12:52:00;;;;;;;1.80;1.00;;;30.90;55.00;;;;;;5047761;28;20196;-80
2022/08/01 12:54:28;;;;;;;1.42;1.05;;;31.00;55.20;;;;;;5051958;28;20640;-78
2022/08/01 12:56:57;;;;;;;1.52;1.20;;;31.00;54.60;;;;;;5066346;28;20306;-78
2022/08/01 12:59:28;;;;;;;2.25;1.05;;;31.20;54.30;;;;;;5055102;28;21009;-79
2022/08/01 13:02:08;;;;;;;1.73;0.90;;;31.30;54.20;;;;;;5041700;28;20191;-81
2022/08/01 13:04:51;;;;;;;3.17;0.90;;;31.30;53.00;;;;;;5048015;28;20440;-79
2022/08/01 13:07:20;;;;;;;1.00;0.80;;;31.40;51.20;;;;;;5058397;28;20277;-78
2022/08/01 13:09:51;;;;;;;3.60;0.82;;;31.40;51.70;;;;;;5048278;28;20199;-81
2022/08/01 13:12:19;;;;;;;0.88;0.70;;;31.40;51.70;;;;;;5056771;28;20187;-82